sensor_id;sensor_type;location;lat;lon;timestamp;P1;durP1;ratioP1;P2;durP2;ratioP2
29030;SDS011;16122;50.236;11.734;2023-11-18T00:00:19;2.80;;;1.73;;
29030;SDS011;16122;50.236;11.734;2023-11-18T00:02:45;1.63;;;1.27;;
29030;SDS011;16122;50.236;11.734;2023-11-18T00:05:12;1.60;;;1.30;;
29030;SDS011;16122;50.236;11.734;2023-11-18T00:07:39;1.50;;;1.40;;
29030;SDS011;16122;50.236;11.734;2023-11-18T00:10:05;1.57;;;1.47;;
29030;SDS011;16122;50.236;11.734;2023-11-18T00:12:32;1.17;;;1.07;;
29030;SDS011;16122;50.236;11.734;2023-11-18T00:15:00;1.27;;;1.13;;
29030;SDS011;16122;50.236;11.734;2023-11-18T00:17:32;1.67;;;1.47;;
29030;SDS011;16122;50.236;11.734;2023-11-18T00:19:58;1.57;;;1.23;;
29030;SDS011;16122;50.236;11.734;2023-11-18T00:22:24;2.17;;;1.47;;
29030;SDS011;16122;50.236;11.734;2023-11-18T00:24:50;1.50;;;1.40;;
29030;SDS011;16122;50.236;11.734;2023-11-18T00:27:17;1.50;;;1.40;;
29030;SDS011;16122;50.236;11.734;2023-11-18T00:29:43;1.43;;;1.33;;
29030;SDS011;16122;50.236;11.734;2023-11-18T00:32:09;1.83;;;1.60;;
29030;SDS011;16122;50.236;11.734;2023-11-18T00:34:35;2.07;;;1.90;;
29030;SDS011;16122;50.236;11.734;2023-11-18T00:37:00;2.70;;;1.67;;
29030;SDS011;16122;50.236;11.734;2023-11-18T00:39:26;1.37;;;1.20;;
29030;SDS011;16122;50.236;11.734;2023-11-18T00:41:52;1.77;;;1.67;;
29030;SDS011;16122;50.236;11.734;2023-11-18T00:44:18;2.50;;;1.77;;
29030;SDS011;16122;50.236;11.734;2023-11-18T00:46:44;1.70;;;1.60;;
29030;SDS011;16122;50.236;11.734;2023-11-18T00:49:10;1.50;;;1.33;;
29030;SDS011;16122;50.236;11.734;2023-11-18T00:51:37;2.13;;;1.73;;
29030;SDS011;16122;50.236;11.734;2023-11-18T00:54:03;1.17;;;1.07;;
29030;SDS011;16122;50.236;11.734;2023-11-18T00:56:32;1.67;;;1.33;;
29030;SDS011;16122;50.236;11.734;2023-11-18T00:58:58;1.50;;;1.40;;
29030;SDS011;16122;50.236;11.734;2023-11-18T01:01:26;1.40;;;1.30;;
29030;SDS011;16122;50.236;11.734;2023-11-18T01:03:52;2.00;;;1.67;;
29030;SDS011;16122;50.236;11.734;2023-11-18T01:06:19;2.07;;;1.33;;
29030;SDS011;16122;50.236;11.734;2023-11-18T01:08:45;1.63;;;1.53;;
29030;SDS011;16122;50.236;11.734;2023-11-18T01:11:17;1.87;;;1.57;;
29030;SDS011;16122;50.236;11.734;2023-11-18T01:13:49;1.50;;;1.30;;
29030;SDS011;16122;50.236;11.734;2023-11-18T01:16:15;1.23;;;1.13;;
29030;SDS011;16122;50.236;11.734;2023-11-18T01:18:42;1.20;;;1.10;;
29030;SDS011;16122;50.236;11.734;2023-11-18T01:21:08;1.40;;;1.30;;
29030;SDS011;16122;50.236;11.734;2023-11-18T01:23:35;1.53;;;1.43;;
29030;SDS011;16122;50.236;11.734;2023-11-18T01:26:01;1.20;;;0.90;;
29030;SDS011;16122;50.236;11.734;2023-11-18T01:28:30;1.20;;;1.10;;
29030;SDS011;16122;50.236;11.734;2023-11-18T01:31:02;1.63;;;1.20;;
29030;SDS011;16122;50.236;11.734;2023-11-18T01:33:29;1.63;;;1.53;;
29030;SDS011;16122;50.236;11.734;2023-11-18T01:35:55;2.20;;;1.70;;
29030;SDS011;16122;50.236;11.734;2023-11-18T01:38:21;3.13;;;1.20;;
29030;SDS011;16122;50.236;11.734;2023-11-18T01:40:47;1.77;;;1.50;;
29030;SDS011;16122;50.236;11.734;2023-11-18T01:43:13;1.93;;;1.30;;
29030;SDS011;16122;50.236;11.734;2023-11-18T01:45:42;1.60;;;1.10;;
29030;SDS011;16122;50.236;11.734;2023-11-18T01:48:08;1.97;;;1.50;;
29030;SDS011;16122;50.236;11.734;2023-11-18T01:50:36;1.60;;;1.00;;
29030;SDS011;16122;50.236;11.734;2023-11-18T01:53:05;0.90;;;0.90;;
29030;SDS011;16122;50.236;11.734;2023-11-18T01:55:32;1.23;;;1.07;;
29030;SDS011;16122;50.236;11.734;2023-11-18T01:58:00;1.20;;;1.00;;
29030;SDS011;16122;50.236;11.734;2023-11-18T02:00:33;1.20;;;1.10;;
29030;SDS011;16122;50.236;11.734;2023-11-18T02:03:00;1.47;;;1.10;;
29030;SDS011;16122;50.236;11.734;2023-11-18T02:05:26;2.97;;;1.83;;
29030;SDS011;16122;50.236;11.734;2023-11-18T02:07:52;1.87;;;1.00;;
29030;SDS011;16122;50.236;11.734;2023-11-18T02:10:18;1.33;;;1.23;;
29030;SDS011;16122;50.236;11.734;2023-11-18T02:12:46;0.97;;;0.97;;
29030;SDS011;16122;50.236;11.734;2023-11-18T02:15:22;1.10;;;1.00;;
29030;SDS011;16122;50.236;11.734;2023-11-18T02:17:50;1.27;;;1.10;;
29030;SDS011;16122;50.236;11.734;2023-11-18T02:20:19;1.27;;;1.17;;
29030;SDS011;16122;50.236;11.734;2023-11-18T02:22:46;2.00;;;1.17;;
29030;SDS011;16122;50.236;11.734;2023-11-18T02:25:15;0.80;;;0.80;;
29030;SDS011;16122;50.236;11.734;2023-11-18T02:27:43;0.90;;;0.90;;
29030;SDS011;16122;50.236;11.734;2023-11-18T02:30:10;1.93;;;1.00;;
29030;SDS011;16122;50.236;11.734;2023-11-18T02:35:27;1.50;;;1.07;;
29030;SDS011;16122;50.236;11.734;2023-11-18T02:38:02;1.00;;;0.83;;
29030;SDS011;16122;50.236;11.734;2023-11-18T02:40:37;1.17;;;1.07;;
29030;SDS011;16122;50.236;11.734;2023-11-18T02:43:09;0.87;;;0.80;;
29030;SDS011;16122;50.236;11.734;2023-11-18T02:45:35;0.87;;;0.80;;
29030;SDS011;16122;50.236;11.734;2023-11-18T02:48:03;1.23;;;1.00;;
29030;SDS011;16122;50.236;11.734;2023-11-18T02:50:31;1.17;;;0.90;;
29030;SDS011;16122;50.236;11.734;2023-11-18T02:52:57;1.00;;;0.90;;
29030;SDS011;16122;50.236;11.734;2023-11-18T02:55:23;1.80;;;1.00;;
29030;SDS011;16122;50.236;11.734;2023-11-18T02:57:50;2.10;;;0.93;;
29030;SDS011;16122;50.236;11.734;2023-11-18T03:00:18;0.80;;;0.80;;
29030;SDS011;16122;50.236;11.734;2023-11-18T03:02:47;1.00;;;0.90;;
29030;SDS011;16122;50.236;11.734;2023-11-18T03:05:15;0.90;;;0.90;;
29030;SDS011;16122;50.236;11.734;2023-11-18T03:07:41;1.07;;;0.97;;
29030;SDS011;16122;50.236;11.734;2023-11-18T03:10:09;0.93;;;0.80;;
29030;SDS011;16122;50.236;11.734;2023-11-18T03:12:37;1.07;;;0.97;;
29030;SDS011;16122;50.236;11.734;2023-11-18T03:15:06;1.10;;;0.80;;
29030;SDS011;16122;50.236;11.734;2023-11-18T03:17:36;1.40;;;0.90;;
29030;SDS011;16122;50.236;11.734;2023-11-18T03:20:03;2.03;;;1.00;;
29030;SDS011;16122;50.236;11.734;2023-11-18T03:22:34;1.10;;;1.00;;
29030;SDS011;16122;50.236;11.734;2023-11-18T03:24:59;1.67;;;0.90;;
29030;SDS011;16122;50.236;11.734;2023-11-18T03:27:25;1.10;;;1.00;;
29030;SDS011;16122;50.236;11.734;2023-11-18T03:29:51;0.97;;;0.70;;
29030;SDS011;16122;50.236;11.734;2023-11-18T03:32:17;0.97;;;0.80;;
29030;SDS011;16122;50.236;11.734;2023-11-18T03:34:43;1.10;;;1.00;;
29030;SDS011;16122;50.236;11.734;2023-11-18T03:37:10;1.10;;;1.00;;
29030;SDS011;16122;50.236;11.734;2023-11-18T03:39:35;1.10;;;1.00;;
29030;SDS011;16122;50.236;11.734;2023-11-18T03:42:01;0.97;;;0.83;;
29030;SDS011;16122;50.236;11.734;2023-11-18T03:44:27;0.90;;;0.80;;
29030;SDS011;16122;50.236;11.734;2023-11-18T03:46:54;1.17;;;1.07;;
29030;SDS011;16122;50.236;11.734;2023-11-18T03:49:19;0.70;;;0.70;;
29030;SDS011;16122;50.236;11.734;2023-11-18T03:51:46;0.90;;;0.80;;
29030;SDS011;16122;50.236;11.734;2023-11-18T03:54:12;0.90;;;0.80;;
29030;SDS011;16122;50.236;11.734;2023-11-18T03:56:39;0.87;;;0.87;;
29030;SDS011;16122;50.236;11.734;2023-11-18T03:59:05;0.80;;;0.70;;
29030;SDS011;16122;50.236;11.734;2023-11-18T04:01:31;1.10;;;0.90;;
29030;SDS011;16122;50.236;11.734;2023-11-18T04:03:57;0.77;;;0.67;;
29030;SDS011;16122;50.236;11.734;2023-11-18T04:06:23;0.80;;;0.80;;
29030;SDS011;16122;50.236;11.734;2023-11-18T04:08:50;0.70;;;0.70;;
29030;SDS011;16122;50.236;11.734;2023-11-18T04:11:16;0.80;;;0.80;;
29030;SDS011;16122;50.236;11.734;2023-11-18T04:13:43;1.47;;;0.80;;
29030;SDS011;16122;50.236;11.734;2023-11-18T04:16:12;1.30;;;1.00;;
29030;SDS011;16122;50.236;11.734;2023-11-18T04:18:40;1.07;;;0.90;;
29030;SDS011;16122;50.236;11.734;2023-11-18T04:21:06;1.07;;;0.90;;
29030;SDS011;16122;50.236;11.734;2023-11-18T04:23:37;1.30;;;0.67;;
29030;SDS011;16122;50.236;11.734;2023-11-18T04:26:03;0.70;;;0.70;;
29030;SDS011;16122;50.236;11.734;2023-11-18T04:28:30;0.70;;;0.70;;
29030;SDS011;16122;50.236;11.734;2023-11-18T04:30:57;1.03;;;0.93;;
29030;SDS011;16122;50.236;11.734;2023-11-18T04:33:22;0.90;;;0.80;;
29030;SDS011;16122;50.236;11.734;2023-11-18T04:35:50;1.10;;;1.00;;
29030;SDS011;16122;50.236;11.734;2023-11-18T04:38:16;0.80;;;0.80;;
29030;SDS011;16122;50.236;11.734;2023-11-18T04:40:42;1.47;;;1.00;;
29030;SDS011;16122;50.236;11.734;2023-11-18T04:43:11;1.20;;;0.90;;
29030;SDS011;16122;50.236;11.734;2023-11-18T04:45:37;0.80;;;0.80;;
29030;SDS011;16122;50.236;11.734;2023-11-18T04:48:04;0.83;;;0.83;;
29030;SDS011;16122;50.236;11.734;2023-11-18T04:50:31;1.10;;;0.70;;
29030;SDS011;16122;50.236;11.734;2023-11-18T04:52:58;0.80;;;0.80;;
29030;SDS011;16122;50.236;11.734;2023-11-18T04:55:24;0.83;;;0.83;;
29030;SDS011;16122;50.236;11.734;2023-11-18T04:57:53;0.90;;;0.80;;
29030;SDS011;16122;50.236;11.734;2023-11-18T05:00:20;0.80;;;0.80;;
29030;SDS011;16122;50.236;11.734;2023-11-18T05:02:46;0.80;;;0.80;;
29030;SDS011;16122;50.236;11.734;2023-11-18T05:05:16;1.23;;;0.70;;
29030;SDS011;16122;50.236;11.734;2023-11-18T05:07:42;0.70;;;0.70;;
29030;SDS011;16122;50.236;11.734;2023-11-18T05:10:09;0.70;;;0.60;;
29030;SDS011;16122;50.236;11.734;2023-11-18T05:12:38;0.70;;;0.70;;
29030;SDS011;16122;50.236;11.734;2023-11-18T05:15:05;0.97;;;0.70;;
29030;SDS011;16122;50.236;11.734;2023-11-18T05:17:36;0.80;;;0.80;;
29030;SDS011;16122;50.236;11.734;2023-11-18T05:20:02;0.90;;;0.80;;
29030;SDS011;16122;50.236;11.734;2023-11-18T05:22:29;0.70;;;0.70;;
29030;SDS011;16122;50.236;11.734;2023-11-18T05:24:56;0.70;;;0.70;;
29030;SDS011;16122;50.236;11.734;2023-11-18T05:27:22;0.90;;;0.83;;
29030;SDS011;16122;50.236;11.734;2023-11-18T05:29:48;0.80;;;0.80;;
29030;SDS011;16122;50.236;11.734;2023-11-18T05:32:22;0.70;;;0.70;;
29030;SDS011;16122;50.236;11.734;2023-11-18T05:34:51;0.80;;;0.80;;
29030;SDS011;16122;50.236;11.734;2023-11-18T05:37:19;1.37;;;1.20;;
29030;SDS011;16122;50.236;11.734;2023-11-18T05:39:45;1.13;;;1.03;;
29030;SDS011;16122;50.236;11.734;2023-11-18T05:42:11;0.80;;;0.80;;
29030;SDS011;16122;50.236;11.734;2023-11-18T05:44:37;0.63;;;0.60;;
29030;SDS011;16122;50.236;11.734;2023-11-18T05:47:07;0.60;;;0.60;;
29030;SDS011;16122;50.236;11.734;2023-11-18T05:49:33;1.00;;;0.80;;
29030;SDS011;16122;50.236;11.734;2023-11-18T05:51:59;0.70;;;0.70;;
29030;SDS011;16122;50.236;11.734;2023-11-18T05:54:25;2.00;;;0.93;;
29030;SDS011;16122;50.236;11.734;2023-11-18T05:56:51;1.70;;;0.90;;
29030;SDS011;16122;50.236;11.734;2023-11-18T05:59:18;0.97;;;0.80;;
29030;SDS011;16122;50.236;11.734;2023-11-18T06:01:45;1.57;;;0.80;;
29030;SDS011;16122;50.236;11.734;2023-11-18T06:04:13;0.80;;;0.80;;
29030;SDS011;16122;50.236;11.734;2023-11-18T06:06:39;0.80;;;0.73;;
29030;SDS011;16122;50.236;11.734;2023-11-18T06:09:04;0.70;;;0.70;;
29030;SDS011;16122;50.236;11.734;2023-11-18T06:11:33;0.80;;;0.70;;
29030;SDS011;16122;50.236;11.734;2023-11-18T06:14:00;1.37;;;0.80;;
29030;SDS011;16122;50.236;11.734;2023-11-18T06:16:26;0.80;;;0.80;;
29030;SDS011;16122;50.236;11.734;2023-11-18T06:18:53;0.70;;;0.70;;
29030;SDS011;16122;50.236;11.734;2023-11-18T06:21:21;0.70;;;0.70;;
29030;SDS011;16122;50.236;11.734;2023-11-18T06:23:53;0.87;;;0.83;;
29030;SDS011;16122;50.236;11.734;2023-11-18T06:26:22;1.00;;;0.90;;
29030;SDS011;16122;50.236;11.734;2023-11-18T06:28:54;1.83;;;1.00;;
29030;SDS011;16122;50.236;11.734;2023-11-18T06:31:21;1.10;;;0.80;;
29030;SDS011;16122;50.236;11.734;2023-11-18T06:33:49;1.07;;;0.97;;
29030;SDS011;16122;50.236;11.734;2023-11-18T06:38:47;0.83;;;0.83;;
29030;SDS011;16122;50.236;11.734;2023-11-18T06:41:18;1.63;;;1.10;;
29030;SDS011;16122;50.236;11.734;2023-11-18T06:43:45;1.30;;;0.93;;
29030;SDS011;16122;50.236;11.734;2023-11-18T06:46:31;1.30;;;0.80;;
29030;SDS011;16122;50.236;11.734;2023-11-18T06:48:59;3.07;;;1.13;;
29030;SDS011;16122;50.236;11.734;2023-11-18T06:51:29;2.30;;;1.30;;
29030;SDS011;16122;50.236;11.734;2023-11-18T06:53:57;1.77;;;1.10;;
29030;SDS011;16122;50.236;11.734;2023-11-18T06:56:24;5.00;;;1.20;;
29030;SDS011;16122;50.236;11.734;2023-11-18T06:58:50;1.50;;;1.10;;
29030;SDS011;16122;50.236;11.734;2023-11-18T07:01:17;1.47;;;1.00;;
29030;SDS011;16122;50.236;11.734;2023-11-18T07:03:44;1.23;;;1.13;;
29030;SDS011;16122;50.236;11.734;2023-11-18T07:06:10;2.07;;;1.30;;
29030;SDS011;16122;50.236;11.734;2023-11-18T07:08:39;2.00;;;0.80;;
29030;SDS011;16122;50.236;11.734;2023-11-18T07:11:05;2.60;;;1.27;;
29030;SDS011;16122;50.236;11.734;2023-11-18T07:13:32;3.90;;;1.20;;
29030;SDS011;16122;50.236;11.734;2023-11-18T07:15:59;1.40;;;1.30;;
29030;SDS011;16122;50.236;11.734;2023-11-18T07:18:29;1.07;;;0.97;;
29030;SDS011;16122;50.236;11.734;2023-11-18T07:21:01;1.40;;;1.10;;
29030;SDS011;16122;50.236;11.734;2023-11-18T07:23:29;2.37;;;1.30;;
29030;SDS011;16122;50.236;11.734;2023-11-18T07:25:55;1.10;;;0.90;;
29030;SDS011;16122;50.236;11.734;2023-11-18T07:28:21;2.60;;;1.23;;
29030;SDS011;16122;50.236;11.734;2023-11-18T07:30:47;1.40;;;1.10;;
29030;SDS011;16122;50.236;11.734;2023-11-18T07:33:14;2.67;;;1.60;;
29030;SDS011;16122;50.236;11.734;2023-11-18T07:35:41;3.37;;;1.47;;
29030;SDS011;16122;50.236;11.734;2023-11-18T07:38:07;5.90;;;1.97;;
29030;SDS011;16122;50.236;11.734;2023-11-18T07:40:33;4.33;;;1.77;;
29030;SDS011;16122;50.236;11.734;2023-11-18T07:42:59;2.00;;;1.60;;
29030;SDS011;16122;50.236;11.734;2023-11-18T07:45:28;5.20;;;1.87;;
29030;SDS011;16122;50.236;11.734;2023-11-18T07:47:59;2.57;;;1.40;;
29030;SDS011;16122;50.236;11.734;2023-11-18T07:50:25;6.50;;;1.80;;
29030;SDS011;16122;50.236;11.734;2023-11-18T07:52:51;4.20;;;1.30;;
29030;SDS011;16122;50.236;11.734;2023-11-18T07:55:17;2.27;;;1.30;;
29030;SDS011;16122;50.236;11.734;2023-11-18T07:57:43;4.33;;;1.17;;
29030;SDS011;16122;50.236;11.734;2023-11-18T08:00:09;2.43;;;1.43;;
29030;SDS011;16122;50.236;11.734;2023-11-18T08:02:41;2.10;;;1.47;;
29030;SDS011;16122;50.236;11.734;2023-11-18T08:05:07;1.83;;;1.20;;
29030;SDS011;16122;50.236;11.734;2023-11-18T08:07:34;2.17;;;1.20;;
29030;SDS011;16122;50.236;11.734;2023-11-18T08:10:03;2.30;;;1.10;;
29030;SDS011;16122;50.236;11.734;2023-11-18T08:12:32;1.73;;;1.40;;
29030;SDS011;16122;50.236;11.734;2023-11-18T08:14:59;2.97;;;1.33;;
29030;SDS011;16122;50.236;11.734;2023-11-18T08:17:25;1.27;;;1.17;;
29030;SDS011;16122;50.236;11.734;2023-11-18T08:19:52;1.27;;;1.13;;
29030;SDS011;16122;50.236;11.734;2023-11-18T08:22:18;2.30;;;1.50;;
29030;SDS011;16122;50.236;11.734;2023-11-18T08:24:44;1.80;;;1.30;;
29030;SDS011;16122;50.236;11.734;2023-11-18T08:27:11;1.67;;;1.10;;
29030;SDS011;16122;50.236;11.734;2023-11-18T08:29:37;2.30;;;1.00;;
29030;SDS011;16122;50.236;11.734;2023-11-18T08:32:04;1.43;;;0.90;;
29030;SDS011;16122;50.236;11.734;2023-11-18T08:34:31;1.30;;;1.20;;
29030;SDS011;16122;50.236;11.734;2023-11-18T08:37:00;1.63;;;1.20;;
29030;SDS011;16122;50.236;11.734;2023-11-18T08:39:28;1.27;;;1.17;;
29030;SDS011;16122;50.236;11.734;2023-11-18T08:41:54;1.40;;;1.20;;
29030;SDS011;16122;50.236;11.734;2023-11-18T08:44:20;1.03;;;0.93;;
29030;SDS011;16122;50.236;11.734;2023-11-18T08:46:45;1.03;;;1.03;;
29030;SDS011;16122;50.236;11.734;2023-11-18T08:49:12;1.30;;;1.13;;
29030;SDS011;16122;50.236;11.734;2023-11-18T08:51:37;2.20;;;0.90;;
29030;SDS011;16122;50.236;11.734;2023-11-18T08:54:09;1.37;;;1.10;;
29030;SDS011;16122;50.236;11.734;2023-11-18T08:56:50;1.57;;;0.90;;
29030;SDS011;16122;50.236;11.734;2023-11-18T08:59:20;1.33;;;1.10;;
29030;SDS011;16122;50.236;11.734;2023-11-18T09:01:53;1.37;;;1.10;;
29030;SDS011;16122;50.236;11.734;2023-11-18T09:04:27;2.53;;;1.10;;
29030;SDS011;16122;50.236;11.734;2023-11-18T09:06:53;1.23;;;0.97;;
29030;SDS011;16122;50.236;11.734;2023-11-18T09:09:23;1.40;;;1.20;;
29030;SDS011;16122;50.236;11.734;2023-11-18T09:11:55;2.47;;;1.00;;
29030;SDS011;16122;50.236;11.734;2023-11-18T09:14:25;2.00;;;1.10;;
29030;SDS011;16122;50.236;11.734;2023-11-18T09:16:52;2.30;;;1.10;;
29030;SDS011;16122;50.236;11.734;2023-11-18T09:19:21;1.40;;;1.00;;
29030;SDS011;16122;50.236;11.734;2023-11-18T09:21:47;1.37;;;1.10;;
29030;SDS011;16122;50.236;11.734;2023-11-18T09:24:14;1.30;;;1.20;;
29030;SDS011;16122;50.236;11.734;2023-11-18T09:26:45;1.10;;;1.00;;
29030;SDS011;16122;50.236;11.734;2023-11-18T09:29:16;1.20;;;1.10;;
29030;SDS011;16122;50.236;11.734;2023-11-18T09:31:49;1.00;;;0.90;;
29030;SDS011;16122;50.236;11.734;2023-11-18T09:34:17;1.20;;;1.10;;
29030;SDS011;16122;50.236;11.734;2023-11-18T09:36:52;1.43;;;1.10;;
29030;SDS011;16122;50.236;11.734;2023-11-18T09:39:21;1.20;;;1.10;;
29030;SDS011;16122;50.236;11.734;2023-11-18T09:42:03;1.17;;;1.07;;
29030;SDS011;16122;50.236;11.734;2023-11-18T09:44:34;1.27;;;1.13;;
29030;SDS011;16122;50.236;11.734;2023-11-18T09:47:03;1.30;;;1.20;;
29030;SDS011;16122;50.236;11.734;2023-11-18T09:49:36;1.10;;;0.83;;
29030;SDS011;16122;50.236;11.734;2023-11-18T09:52:10;1.20;;;0.90;;
29030;SDS011;16122;50.236;11.734;2023-11-18T09:57:32;1.40;;;1.20;;
29030;SDS011;16122;50.236;11.734;2023-11-18T10:00:12;1.50;;;1.07;;
29030;SDS011;16122;50.236;11.734;2023-11-18T10:02:58;1.97;;;1.23;;
29030;SDS011;16122;50.236;11.734;2023-11-18T10:05:26;1.47;;;1.13;;
29030;SDS011;16122;50.236;11.734;2023-11-18T10:07:55;0.90;;;0.87;;
29030;SDS011;16122;50.236;11.734;2023-11-18T10:10:23;1.50;;;1.00;;
29030;SDS011;16122;50.236;11.734;2023-11-18T10:12:52;1.50;;;1.20;;
29030;SDS011;16122;50.236;11.734;2023-11-18T10:15:18;0.83;;;0.83;;
29030;SDS011;16122;50.236;11.734;2023-11-18T10:17:48;1.77;;;1.10;;
29030;SDS011;16122;50.236;11.734;2023-11-18T10:23:08;1.93;;;0.93;;
29030;SDS011;16122;50.236;11.734;2023-11-18T10:28:25;1.00;;;0.90;;
29030;SDS011;16122;50.236;11.734;2023-11-18T10:30:58;0.80;;;0.80;;
29030;SDS011;16122;50.236;11.734;2023-11-18T10:33:45;2.13;;;1.10;;
29030;SDS011;16122;50.236;11.734;2023-11-18T10:36:23;1.10;;;1.00;;
29030;SDS011;16122;50.236;11.734;2023-11-18T10:38:50;1.20;;;0.80;;
29030;SDS011;16122;50.236;11.734;2023-11-18T10:41:20;0.97;;;0.87;;
29030;SDS011;16122;50.236;11.734;2023-11-18T10:43:46;1.70;;;1.00;;
29030;SDS011;16122;50.236;11.734;2023-11-18T10:46:16;1.73;;;0.90;;
29030;SDS011;16122;50.236;11.734;2023-11-18T10:48:42;1.17;;;1.00;;
29030;SDS011;16122;50.236;11.734;2023-11-18T10:51:16;1.00;;;0.90;;
29030;SDS011;16122;50.236;11.734;2023-11-18T10:53:46;2.20;;;1.20;;
29030;SDS011;16122;50.236;11.734;2023-11-18T10:56:26;0.97;;;0.97;;
29030;SDS011;16122;50.236;11.734;2023-11-18T10:58:56;1.63;;;1.00;;
29030;SDS011;16122;50.236;11.734;2023-11-18T11:01:32;1.40;;;1.17;;
29030;SDS011;16122;50.236;11.734;2023-11-18T11:04:04;1.10;;;1.00;;
29030;SDS011;16122;50.236;11.734;2023-11-18T11:06:31;1.13;;;1.00;;
29030;SDS011;16122;50.236;11.734;2023-11-18T11:08:58;1.20;;;1.10;;
29030;SDS011;16122;50.236;11.734;2023-11-18T11:11:25;1.37;;;0.80;;
29030;SDS011;16122;50.236;11.734;2023-11-18T11:13:56;1.00;;;1.00;;
29030;SDS011;16122;50.236;11.734;2023-11-18T11:16:26;4.10;;;1.10;;
29030;SDS011;16122;50.236;11.734;2023-11-18T11:19:08;0.90;;;0.90;;
29030;SDS011;16122;50.236;11.734;2023-11-18T11:21:52;1.20;;;1.00;;
29030;SDS011;16122;50.236;11.734;2023-11-18T11:24:35;1.07;;;0.97;;
29030;SDS011;16122;50.236;11.734;2023-11-18T11:27:28;0.90;;;0.90;;
29030;SDS011;16122;50.236;11.734;2023-11-18T11:30:23;0.80;;;0.80;;
29030;SDS011;16122;50.236;11.734;2023-11-18T11:32:53;0.90;;;0.90;;
29030;SDS011;16122;50.236;11.734;2023-11-18T11:35:30;1.60;;;1.40;;
29030;SDS011;16122;50.236;11.734;2023-11-18T11:37:58;0.90;;;0.90;;
29030;SDS011;16122;50.236;11.734;2023-11-18T11:40:32;1.03;;;0.90;;
29030;SDS011;16122;50.236;11.734;2023-11-18T11:43:01;0.80;;;0.80;;
29030;SDS011;16122;50.236;11.734;2023-11-18T11:45:30;1.10;;;1.00;;
29030;SDS011;16122;50.236;11.734;2023-11-18T11:47:57;0.77;;;0.77;;
29030;SDS011;16122;50.236;11.734;2023-11-18T11:51:03;1.43;;;0.90;;
29030;SDS011;16122;50.236;11.734;2023-11-18T11:53:46;1.37;;;0.80;;
29030;SDS011;16122;50.236;11.734;2023-11-18T11:56:17;1.17;;;1.10;;
29030;SDS011;16122;50.236;11.734;2023-11-18T11:58:49;0.90;;;0.90;;
29030;SDS011;16122;50.236;11.734;2023-11-18T12:01:25;0.80;;;0.80;;
29030;SDS011;16122;50.236;11.734;2023-11-18T12:03:57;1.20;;;0.90;;
29030;SDS011;16122;50.236;11.734;2023-11-18T12:06:24;1.00;;;0.90;;
29030;SDS011;16122;50.236;11.734;2023-11-18T12:08:52;1.00;;;0.80;;
29030;SDS011;16122;50.236;11.734;2023-11-18T12:11:18;1.10;;;1.00;;
29030;SDS011;16122;50.236;11.734;2023-11-18T12:17:02;1.00;;;0.90;;
29030;SDS011;16122;50.236;11.734;2023-11-18T12:19:33;0.87;;;0.87;;
29030;SDS011;16122;50.236;11.734;2023-11-18T12:22:15;1.10;;;1.00;;
29030;SDS011;16122;50.236;11.734;2023-11-18T12:41:14;0.90;;;0.90;;
29030;SDS011;16122;50.236;11.734;2023-11-18T12:44:05;0.97;;;0.97;;
29030;SDS011;16122;50.236;11.734;2023-11-18T12:47:01;0.70;;;0.70;;
29030;SDS011;16122;50.236;11.734;2023-11-18T12:49:40;0.73;;;0.70;;
29030;SDS011;16122;50.236;11.734;2023-11-18T12:52:07;1.20;;;0.87;;
29030;SDS011;16122;50.236;11.734;2023-11-18T12:54:34;1.10;;;1.00;;
29030;SDS011;16122;50.236;11.734;2023-11-18T12:57:03;1.00;;;0.80;;
29030;SDS011;16122;50.236;11.734;2023-11-18T12:59:34;0.80;;;0.80;;
29030;SDS011;16122;50.236;11.734;2023-11-18T13:02:06;0.80;;;0.80;;
29030;SDS011;16122;50.236;11.734;2023-11-18T13:04:43;1.00;;;0.90;;
29030;SDS011;16122;50.236;11.734;2023-11-18T13:07:21;0.80;;;0.80;;
29030;SDS011;16122;50.236;11.734;2023-11-18T13:09:47;0.87;;;0.87;;
29030;SDS011;16122;50.236;11.734;2023-11-18T13:12:14;1.10;;;1.00;;
29030;SDS011;16122;50.236;11.734;2023-11-18T13:14:40;1.10;;;1.00;;
29030;SDS011;16122;50.236;11.734;2023-11-18T13:17:11;1.20;;;1.10;;
29030;SDS011;16122;50.236;11.734;2023-11-18T13:19:38;0.80;;;0.70;;
29030;SDS011;16122;50.236;11.734;2023-11-18T13:22:05;1.00;;;0.90;;
29030;SDS011;16122;50.236;11.734;2023-11-18T13:24:36;0.87;;;0.87;;
29030;SDS011;16122;50.236;11.734;2023-11-18T13:27:15;1.20;;;1.00;;
29030;SDS011;16122;50.236;11.734;2023-11-18T13:29:45;0.93;;;0.93;;
29030;SDS011;16122;50.236;11.734;2023-11-18T13:32:18;1.43;;;0.90;;
29030;SDS011;16122;50.236;11.734;2023-11-18T13:34:48;1.07;;;1.00;;
29030;SDS011;16122;50.236;11.734;2023-11-18T13:37:14;1.50;;;0.90;;
29030;SDS011;16122;50.236;11.734;2023-11-18T13:39:53;1.20;;;1.10;;
29030;SDS011;16122;50.236;11.734;2023-11-18T13:42:20;1.20;;;1.10;;
29030;SDS011;16122;50.236;11.734;2023-11-18T13:44:48;1.00;;;1.00;;
29030;SDS011;16122;50.236;11.734;2023-11-18T13:47:18;0.97;;;0.97;;
29030;SDS011;16122;50.236;11.734;2023-11-18T13:49:50;0.90;;;0.90;;
29030;SDS011;16122;50.236;11.734;2023-11-18T13:52:19;1.57;;;1.10;;
29030;SDS011;16122;50.236;11.734;2023-11-18T13:54:46;2.80;;;1.40;;
29030;SDS011;16122;50.236;11.734;2023-11-18T13:57:13;1.20;;;1.10;;
29030;SDS011;16122;50.236;11.734;2023-11-18T13:59:38;1.13;;;0.90;;
29030;SDS011;16122;50.236;11.734;2023-11-18T14:02:05;1.20;;;1.10;;
29030;SDS011;16122;50.236;11.734;2023-11-18T14:04:31;1.40;;;1.00;;
29030;SDS011;16122;50.236;11.734;2023-11-18T14:07:02;1.30;;;1.20;;
29030;SDS011;16122;50.236;11.734;2023-11-18T14:09:33;1.87;;;1.20;;
29030;SDS011;16122;50.236;11.734;2023-11-18T14:12:05;1.40;;;1.27;;
29030;SDS011;16122;50.236;11.734;2023-11-18T14:14:32;0.90;;;0.90;;
29030;SDS011;16122;50.236;11.734;2023-11-18T14:16:58;1.00;;;0.90;;
29030;SDS011;16122;50.236;11.734;2023-11-18T14:19:24;0.93;;;0.93;;
29030;SDS011;16122;50.236;11.734;2023-11-18T14:21:51;1.70;;;1.33;;
29030;SDS011;16122;50.236;11.734;2023-11-18T14:24:17;1.50;;;1.40;;
29030;SDS011;16122;50.236;11.734;2023-11-18T14:26:43;1.23;;;1.13;;
29030;SDS011;16122;50.236;11.734;2023-11-18T14:29:09;1.20;;;1.00;;
29030;SDS011;16122;50.236;11.734;2023-11-18T14:31:37;1.20;;;1.10;;
29030;SDS011;16122;50.236;11.734;2023-11-18T14:34:03;1.40;;;1.20;;
29030;SDS011;16122;50.236;11.734;2023-11-18T14:36:30;1.30;;;1.20;;
29030;SDS011;16122;50.236;11.734;2023-11-18T14:38:56;1.30;;;1.20;;
29030;SDS011;16122;50.236;11.734;2023-11-18T14:41:25;1.17;;;1.07;;
29030;SDS011;16122;50.236;11.734;2023-11-18T14:43:52;1.03;;;0.90;;
29030;SDS011;16122;50.236;11.734;2023-11-18T14:46:18;1.97;;;1.67;;
29030;SDS011;16122;50.236;11.734;2023-11-18T14:48:44;1.40;;;1.30;;
29030;SDS011;16122;50.236;11.734;2023-11-18T14:51:10;1.40;;;1.30;;
29030;SDS011;16122;50.236;11.734;2023-11-18T14:53:38;1.37;;;1.27;;
29030;SDS011;16122;50.236;11.734;2023-11-18T14:56:04;1.10;;;1.10;;
29030;SDS011;16122;50.236;11.734;2023-11-18T14:58:31;1.27;;;1.17;;
29030;SDS011;16122;50.236;11.734;2023-11-18T15:00:58;1.23;;;1.10;;
29030;SDS011;16122;50.236;11.734;2023-11-18T15:03:25;1.30;;;1.13;;
29030;SDS011;16122;50.236;11.734;2023-11-18T15:05:51;1.77;;;1.30;;
29030;SDS011;16122;50.236;11.734;2023-11-18T15:08:17;1.30;;;1.20;;
29030;SDS011;16122;50.236;11.734;2023-11-18T15:10:42;0.97;;;0.97;;
29030;SDS011;16122;50.236;11.734;2023-11-18T15:13:09;1.10;;;1.00;;
29030;SDS011;16122;50.236;11.734;2023-11-18T15:15:42;1.37;;;1.27;;